Time;durP1;ratioP1;P1;durP2;ratioP2;P2;SDS_P1;SDS_P2;PMS_P1;PMS_P2;Temp;Humidity;BMP_temperature;BMP_pressure;BME280_temperature;BME280_humidity;BME280_pressure;Samples;Min_cycle;Max_cycle;Signal;HPM_P1;HPM_P2
2021/09/26 00:01:33;;;;;;;6.55;5.60;;;;;;;15.58;88.66;99930.09;5054048;28;20048;-71
2021/09/26 00:04:00;;;;;;;7.72;5.28;;;;;;;15.57;88.75;99923.03;5058242;28;20102;-71
2021/09/26 00:06:27;;;;;;;11.43;5.80;;;;;;;15.63;88.65;99929.72;5057511;28;20123;-70
2021/09/26 00:08:55;;;;;;;5.80;5.03;;;;;;;15.72;88.56;99936.13;5057112;28;20048;-71
2021/09/26 00:11:22;;;;;;;7.95;5.45;;;;;;;15.61;88.63;99926.31;5058216;28;20441;-70
2021/09/26 00:13:50;;;;;;;8.93;5.90;;;;;;;15.62;89.05;99930.69;5058199;28;20103;-70
2021/09/26 00:16:17;;;;;;;9.75;5.93;;;;;;;15.60;88.55;99922.75;5058129;28;20048;-69
2021/09/26 00:18:44;;;;;;;6.05;5.45;;;;;;;15.58;88.96;99924.72;5056949;28;20388;-72
2021/09/26 00:21:11;;;;;;;6.43;5.40;;;;;;;15.57;89.37;99919.47;5057463;28;20103;-72
2021/09/26 00:23:38;;;;;;;9.02;6.03;;;;;;;15.58;89.46;99924.72;5056048;28;20392;-72
2021/09/26 00:26:05;;;;;;;7.90;5.70;;;;;;;15.63;89.65;99923.50;5056824;28;20397;-71
2021/09/26 00:28:35;;;;;;;6.80;5.35;;;;;;;15.59;90.41;99926.44;5057896;28;20041;-71
2021/09/26 00:31:03;;;;;;;7.63;5.60;;;;;;;15.50;90.46;99916.47;5057989;28;20071;-71
2021/09/26 00:33:30;;;;;;;10.90;5.95;;;;;;;15.57;90.11;99930.22;5057984;28;20060;-70
2021/09/26 00:35:58;;;;;;;7.18;6.05;;;;;;;15.56;90.40;99924.00;5053262;28;20065;-69
2021/09/26 00:38:25;;;;;;;9.55;6.10;;;;;;;15.57;90.58;99922.16;5037731;28;20097;-68
2021/09/26 00:40:52;;;;;;;6.32;4.97;;;;;;;15.58;90.91;99930.09;5037795;28;20052;-73
2021/09/26 00:43:20;;;;;;;9.55;5.32;;;;;;;15.59;91.20;99925.59;5053224;28;20049;-72
2021/09/26 00:45:47;;;;;;;7.80;5.15;;;;;;;15.64;90.88;99923.38;5037504;28;20052;-71
2021/09/26 00:48:14;;;;;;;8.15;5.47;;;;;;;15.65;90.66;99913.44;5037717;28;20072;-71
2021/09/26 00:50:42;;;;;;;10.23;5.68;;;;;;;15.66;90.97;99915.13;5036405;28;20107;-71
2021/09/26 00:53:08;;;;;;;8.38;5.72;;;;;;;15.64;91.40;99914.44;5046166;28;20044;-72
2021/09/26 00:55:36;;;;;;;6.45;5.32;;;;;;;15.60;91.91;99908.47;5039497;28;20446;-70
2021/09/26 00:58:03;;;;;;;8.98;5.72;;;;;;;15.58;91.66;99903.22;5054094;28;20045;-73
2021/09/26 01:00:30;;;;;;;7.53;5.78;;;;;;;15.58;91.52;99897.81;5050011;28;20042;-73
2021/09/26 01:02:57;;;;;;;7.95;6.30;;;;;;;15.58;91.91;99902.38;5037372;28;20084;-73
2021/09/26 01:05:27;;;;;;;7.43;5.72;;;;;;;15.60;91.64;99903.09;5055833;28;20041;-71
2021/09/26 01:08:06;;;;;;;8.93;5.97;;;;;;;15.58;91.29;99894.31;5057088;28;20124;-71
2021/09/26 01:10:39;;;;;;;7.38;6.10;;;;;;;15.61;91.46;99892.19;5057214;28;20140;-72
2021/09/26 01:13:29;;;;;;;7.32;5.57;;;;;;;15.67;91.31;99900.69;5055431;28;20051;-71
2021/09/26 01:15:59;;;;;;;7.38;5.78;;;;;;;15.68;91.54;99895.19;5057097;28;20052;-71
2021/09/26 01:18:53;;;;;;;11.98;6.13;;;;;;;15.71;91.83;99896.75;5056975;28;20037;-71
2021/09/26 01:21:38;;;;;;;9.38;6.35;;;;;;;15.73;91.65;99886.72;5056885;28;20072;-72
2021/09/26 01:24:24;;;;;;;7.75;6.03;;;;;;;15.77;91.47;99885.47;5055796;28;20051;-72
2021/09/26 01:27:20;;;;;;;7.95;5.78;;;;;;;15.70;91.63;99870.84;5056716;28;20067;-73
2021/09/26 01:30:17;;;;;;;7.10;6.00;;;;;;;15.82;91.66;99887.75;5056803;28;20338;-72
2021/09/26 01:33:21;;;;;;;9.75;6.10;;;;;;;15.87;91.71;99875.59;5055742;28;20040;-70
2021/09/26 01:36:01;;;;;;;7.57;5.50;;;;;;;15.89;91.73;99879.00;4997687;28;20050;-72
2021/09/26 01:38:36;;;;;;;8.13;5.68;;;;;;;15.91;91.93;99880.72;5033078;28;20066;-71
2021/09/26 01:41:12;;;;;;;9.75;6.22;;;;;;;15.93;92.41;99882.31;5036683;28;20049;-72
2021/09/26 01:43:42;;;;;;;9.25;5.97;;;;;;;15.95;92.28;99883.03;5036732;28;20438;-72
2021/09/26 01:46:13;;;;;;;6.82;5.55;;;;;;;15.97;91.94;99880.22;5036539;28;20045;-71
2021/09/26 01:48:49;;;;;;;11.00;6.07;;;;;;;16.01;92.05;99881.63;5036355;28;20343;-70
2021/09/26 01:51:16;;;;;;;10.57;5.80;;;;;;;16.09;92.49;99889.03;5036419;28;20041;-71
2021/09/26 01:53:45;;;;;;;7.72;5.57;;;;;;;16.10;92.71;99890.72;5036568;28;20061;-73
2021/09/26 01:56:15;;;;;;;7.45;5.70;;;;;;;16.12;92.75;99889.59;5036289;28;20355;-71
2021/09/26 01:58:46;;;;;;;8.55;5.90;;;;;;;16.15;92.99;99889.34;5036433;28;20038;-71
2021/09/26 02:01:15;;;;;;;8.57;5.65;;;;;;;16.19;92.78;99892.63;5035137;28;20055;-73
2021/09/26 02:03:42;;;;;;;7.55;5.68;;;;;;;16.21;93.04;99893.31;5040674;28;20505;-74
2021/09/26 02:06:10;;;;;;;7.97;5.35;;;;;;;16.23;93.07;99891.34;5056148;28;20045;-71
2021/09/26 02:08:42;;;;;;;7.35;5.55;;;;;;;16.29;93.36;99889.97;5056006;28;20098;-73
2021/09/26 02:11:11;;;;;;;7.95;5.55;;;;;;;16.34;93.74;99892.22;5056014;28;20045;-71
2021/09/26 02:13:42;;;;;;;8.75;4.88;;;;;;;16.52;92.51;99895.09;5071543;28;20425;-73
2021/09/26 02:16:10;;;;;;;7.40;4.30;;;;;;;16.62;92.68;99895.94;5055944;28;20049;-72
2021/09/26 02:18:38;;;;;;;8.52;5.35;;;;;;;16.71;92.42;99899.66;5056022;28;20091;-73
2021/09/26 02:21:05;;;;;;;8.65;4.93;;;;;;;16.80;91.76;99897.97;5055913;28;20085;-72
2021/09/26 02:23:33;;;;;;;8.77;5.25;;;;;;;16.83;91.68;99895.84;5038063;28;20131;-71
2021/09/26 02:26:03;;;;;;;5.65;4.63;;;;;;;16.83;91.89;99895.84;5054838;28;20422;-73
2021/09/26 02:28:30;;;;;;;9.25;4.95;;;;;;;16.83;92.18;99892.28;5054812;28;20044;-72
2021/09/26 02:30:57;;;;;;;7.90;5.30;;;;;;;16.97;91.31;99897.28;5054418;28;20045;-71
2021/09/26 02:33:24;;;;;;;8.38;4.90;;;;;;;17.09;90.66;99902.53;5054954;28;20339;-71
2021/09/26 02:35:51;;;;;;;7.15;5.05;;;;;;;17.20;90.13;99898.84;5037477;28;20377;-72
2021/09/26 02:38:18;;;;;;;6.57;4.45;;;;;;;17.18;90.16;99893.59;5034457;28;20124;-72
2021/09/26 02:40:51;;;;;;;6.22;4.97;;;;;;;17.30;89.69;99893.44;5034598;28;20037;-71
2021/09/26 02:43:32;;;;;;;8.90;4.90;;;;;;;17.42;89.54;99891.44;5035475;28;20049;-73
2021/09/26 02:46:05;;;;;;;9.27;5.65;;;;;;;17.43;93.76;99893.97;5035782;28;20046;-71
2021/09/26 02:48:34;;;;;;;8.25;4.95;;;;;;;17.34;96.22;99889.47;5035393;28;20045;-70
2021/09/26 02:51:03;;;;;;;9.30;6.43;;;;;;;17.28;98.22;99900.81;5035760;28;20049;-70
2021/09/26 02:53:30;;;;;;;14.57;6.22;;;;;;;17.01;100.00;99895.16;5034263;28;20052;-73
2021/09/26 02:56:01;;;;;;;14.15;7.03;;;;;;;16.85;100.00;99909.19;5035366;28;20053;-73
2021/09/26 02:58:28;;;;;;;15.27;7.72;;;;;;;16.69;100.00;99910.56;5035283;28;20419;-70
2021/09/26 03:00:55;;;;;;;9.75;7.10;;;;;;;16.54;100.00;99909.28;5034019;28;20136;-70
2021/09/26 03:03:27;;;;;;;16.73;7.38;;;;;;;16.47;100.00;99903.59;5037798;28;20102;-71
2021/09/26 03:05:55;;;;;;;11.18;7.45;;;;;;;16.40;100.00;99897.06;5055230;28;20052;-70
2021/09/26 03:08:23;;;;;;;14.73;7.97;;;;;;;16.36;100.00;99890.25;5053924;28;20048;-73
2021/09/26 03:10:53;;;;;;;11.27;7.82;;;;;;;16.30;100.00;99899.72;5055094;28;20094;-73
2021/09/26 03:13:20;;;;;;;15.05;7.65;;;;;;;16.29;100.00;99898.03;5055068;28;20041;-70
2021/09/26 03:15:47;;;;;;;8.68;7.53;;;;;;;16.25;100.00;99894.72;5053825;28;20067;-72
2021/09/26 03:18:14;;;;;;;9.40;7.60;;;;;;;16.26;100.00;99900.97;5054892;28;20044;-72
2021/09/26 03:20:41;;;;;;;10.75;7.60;;;;;;;16.25;100.00;99905.50;5055226;28;20057;-72
2021/09/26 03:23:09;;;;;;;11.73;6.93;;;;;;;16.27;100.00;99898.16;5054142;28;20068;-73
2021/09/26 03:25:36;;;;;;;11.75;7.13;;;;;;;16.32;100.00;99896.88;5070423;28;20448;-70
2021/09/26 03:28:03;;;;;;;11.05;7.25;;;;;;;16.29;100.00;99895.34;5037278;28;20056;-72
2021/09/26 03:30:30;;;;;;;12.88;7.43;;;;;;;16.26;100.00;99896.47;5054906;28;20075;-70
2021/09/26 03:32:57;;;;;;;9.77;7.43;;;;;;;16.25;100.00;99894.72;5055107;28;20049;-71
2021/09/26 03:35:24;;;;;;;10.63;7.95;;;;;;;16.22;100.00;99889.63;5040696;28;20469;-70
2021/09/26 03:37:53;;;;;;;11.30;7.78;;;;;;;16.20;100.00;99885.38;5037432;28;20383;-72
2021/09/26 03:40:20;;;;;;;10.05;7.07;;;;;;;16.23;100.00;99893.19;5039127;28;20053;-73
2021/09/26 03:42:47;;;;;;;11.02;7.88;;;;;;;16.20;100.00;99888.06;5037520;28;20136;-71
2021/09/26 03:45:14;;;;;;;10.80;8.35;;;;;;;16.18;100.00;99890.06;5038887;28;20049;-72
2021/09/26 03:47:41;;;;;;;7.95;7.15;;;;;;;16.17;100.00;99886.50;5037635;28;20119;-70
2021/09/26 03:50:09;;;;;;;10.00;7.15;;;;;;;16.20;100.00;99885.38;5038704;28;20048;-70
2021/09/26 03:52:35;;;;;;;10.52;7.43;;;;;;;16.14;100.00;99893.00;5038653;28;20045;-70
2021/09/26 03:55:04;;;;;;;9.65;7.68;;;;;;;16.11;100.00;99892.44;5038504;28;20046;-71
2021/09/26 03:57:31;;;;;;;9.35;6.90;;;;;;;16.06;100.00;99890.16;5038407;28;20046;-72
2021/09/26 03:59:58;;;;;;;11.25;7.43;;;;;;;16.01;100.00;99873.53;5038508;28;20038;-71
2021/09/26 04:02:25;;;;;;;9.35;7.68;;;;;;;16.02;100.00;99878.81;5038501;28;20050;-71
2021/09/26 04:04:52;;;;;;;11.35;7.72;;;;;;;15.99;100.00;99872.84;5053628;28;20056;-73
2021/09/26 04:07:19;;;;;;;9.25;7.88;;;;;;;15.94;100.00;99867.88;5057343;28;20045;-73
2021/09/26 04:09:46;;;;;;;14.10;7.90;;;;;;;15.87;100.00;99858.59;5058504;28;20041;-71
2021/09/26 04:12:13;;;;;;;9.23;7.13;;;;;;;16.09;100.00;99884.50;5058551;28;20060;-72
2021/09/26 04:14:40;;;;;;;10.82;7.05;;;;;;;16.14;100.00;99874.16;5057103;28;20457;-71
2021/09/26 04:17:07;;;;;;;10.95;7.10;;;;;;;16.18;100.00;99885.50;5058339;28;20075;-70
2021/09/26 04:19:34;;;;;;;9.38;7.68;;;;;;;16.12;100.00;99886.91;5058078;28;20037;-70
2021/09/26 04:22:01;;;;;;;8.55;7.65;;;;;;;16.18;100.00;99884.66;5058185;28;20049;-69
2021/09/26 04:24:27;;;;;;;13.18;8.15;;;;;;;16.15;100.00;99875.03;5057963;28;20102;-69
2021/09/26 04:26:54;;;;;;;12.77;7.57;;;;;;;16.23;100.00;99885.13;5058071;28;20048;-72
2021/09/26 04:29:21;;;;;;;11.07;7.72;;;;;;;16.23;100.00;99877.88;5057896;28;20106;-72
2021/09/26 04:31:49;;;;;;;9.30;7.38;;;;;;;16.20;100.00;99875.47;5056841;28;20049;-71
2021/09/26 04:34:16;;;;;;;11.38;6.80;;;;;;;16.22;100.00;99883.38;5058153;28;20357;-70
2021/09/26 04:36:43;;;;;;;9.30;7.22;;;;;;;16.28;100.00;99882.84;5058116;28;20076;-70
2021/09/26 04:39:09;;;;;;;10.00;7.13;;;;;;;16.26;100.00;99880.31;5057598;28;20072;-69
2021/09/26 04:41:36;;;;;;;8.68;7.40;;;;;;;16.22;100.00;99886.94;5056965;28;20067;-71
2021/09/26 04:44:03;;;;;;;13.50;7.25;;;;;;;16.19;100.00;99879.16;5058032;28;20045;-71
2021/09/26 04:46:30;;;;;;;10.98;6.93;;;;;;;16.25;100.00;99889.34;5058060;28;20311;-71
2021/09/26 04:48:57;;;;;;;10.23;7.50;;;;;;;16.21;100.00;99887.94;5056184;28;20135;-70
2021/09/26 04:51:24;;;;;;;10.23;7.40;;;;;;;16.26;100.00;99890.22;5056557;28;20426;-71
2021/09/26 04:53:51;;;;;;;10.18;7.95;;;;;;;16.21;100.00;99884.38;5056433;28;20049;-69
2021/09/26 04:56:17;;;;;;;9.13;7.38;;;;;;;16.16;100.00;99882.09;5057532;28;20041;-70
2021/09/26 04:58:44;;;;;;;8.05;7.15;;;;;;;16.08;100.00;99881.94;5056436;28;20339;-71
2021/09/26 05:01:11;;;;;;;9.20;7.53;;;;;;;16.09;100.00;99889.91;5054312;28;20076;-70
2021/09/26 05:03:39;;;;;;;10.00;7.38;;;;;;;16.05;100.00;99882.19;5044967;28;20037;-71
2021/09/26 05:06:05;;;;;;;12.25;7.65;;;;;;;16.05;100.00;99883.06;5046369;28;20046;-74
2021/09/26 05:08:32;;;;;;;11.98;7.47;;;;;;;16.01;100.00;99889.69;5036109;28;20054;-71
2021/09/26 05:10:59;;;;;;;9.07;7.18;;;;;;;16.06;100.00;99890.16;5051438;28;20096;-72
2021/09/26 05:13:26;;;;;;;10.50;7.65;;;;;;;16.06;100.00;99889.31;5037150;28;20395;-71
2021/09/26 05:15:53;;;;;;;8.18;7.30;;;;;;;16.04;100.00;99884.06;5051255;28;20064;-71
2021/09/26 05:18:20;;;;;;;9.60;7.43;;;;;;;15.96;100.00;99890.13;5053981;28;20132;-71
2021/09/26 05:20:46;;;;;;;13.70;8.40;;;;;;;15.95;100.00;99887.56;5056632;28;20048;-71
2021/09/26 05:23:13;;;;;;;10.60;7.55;;;;;;;15.98;100.00;99882.78;5057041;28;20503;-71
2021/09/26 05:25:40;;;;;;;13.10;8.15;;;;;;;15.95;100.00;99883.03;5056271;28;20052;-70
2021/09/26 05:28:07;;;;;;;11.43;7.47;;;;;;;15.93;100.00;99890.41;5038260;28;20335;-69
2021/09/26 05:30:34;;;;;;;12.13;8.43;;;;;;;15.88;100.00;99882.69;5055600;28;20083;-69
2021/09/26 05:33:02;;;;;;;13.27;8.43;;;;;;;15.87;100.00;99890.91;5056298;28;20394;-70
2021/09/26 05:35:29;;;;;;;11.30;8.25;;;;;;;15.92;100.00;99887.81;5052126;28;20108;-69
2021/09/26 05:37:57;;;;;;;9.48;8.20;;;;;;;15.89;100.00;99894.31;5055483;28;20067;-72
2021/09/26 05:40:25;;;;;;;10.05;7.88;;;;;;;15.91;100.00;99897.69;5055940;28;20106;-69
2021/09/26 05:42:52;;;;;;;11.63;8.00;;;;;;;15.87;100.00;99905.19;5056110;28;20049;-74
2021/09/26 05:45:19;;;;;;;12.30;8.43;;;;;;;15.84;100.00;99901.91;5055925;28;20121;-69
2021/09/26 05:47:46;;;;;;;14.25;8.68;;;;;;;15.81;100.00;99900.38;5056102;28;20044;-70
2021/09/26 05:50:13;;;;;;;15.27;9.07;;;;;;;15.86;100.00;99910.72;5054560;28;20087;-72
2021/09/26 05:52:40;;;;;;;10.60;8.38;;;;;;;15.85;100.00;99915.25;5056014;28;20128;-71
2021/09/26 05:55:08;;;;;;;10.18;8.40;;;;;;;15.95;100.00;99915.31;5055840;28;20461;-73
2021/09/26 05:57:35;;;;;;;12.23;8.95;;;;;;;15.93;100.00;99911.94;5051167;28;20048;-73
2021/09/26 06:00:04;;;;;;;11.40;8.80;;;;;;;15.90;100.00;99906.75;5030451;28;20037;-75
2021/09/26 06:02:38;;;;;;;11.20;8.45;;;;;;;15.96;100.00;99916.19;5039579;28;20061;-73
2021/09/26 06:05:10;;;;;;;9.65;8.50;;;;;;;16.01;100.00;99924.69;5049388;28;20438;-74
2021/09/26 06:07:37;;;;;;;12.52;8.68;;;;;;;15.99;100.00;99924.84;5045997;28;20469;-69
2021/09/26 06:10:05;;;;;;;10.85;8.88;;;;;;;15.97;100.00;99920.59;5058803;28;20057;-71
2021/09/26 06:12:33;;;;;;;10.90;8.65;;;;;;;15.98;100.00;99914.22;5053390;28;20057;-70
2021/09/26 06:15:03;;;;;;;14.02;8.95;;;;;;;15.91;100.00;99908.47;5052254;28;20056;-69
2021/09/26 06:17:34;;;;;;;11.55;9.18;;;;;;;15.96;100.00;99916.19;5045487;28;20036;-69
2021/09/26 06:20:02;;;;;;;10.32;9.20;;;;;;;16.03;100.00;99925.44;5068241;28;20041;-70
2021/09/26 06:22:29;;;;;;;10.25;8.63;;;;;;;16.03;100.00;99920.03;5055375;28;20037;-70
2021/09/26 06:24:58;;;;;;;12.00;8.57;;;;;;;16.07;100.00;99917.94;5053023;28;20037;-71
2021/09/26 06:27:25;;;;;;;10.77;8.60;;;;;;;16.08;100.00;99923.16;5042263;28;20045;-69
2021/09/26 06:29:52;;;;;;;10.98;8.68;;;;;;;16.09;100.00;99915.94;5048703;28;20037;-70
2021/09/26 06:32:19;;;;;;;13.77;8.07;;;;;;;16.17;100.00;99924.19;5036630;28;20038;-73
2021/09/26 06:34:45;;;;;;;9.38;7.88;;;;;;;16.14;100.00;99914.53;5051910;28;20076;-74
2021/09/26 06:37:12;;;;;;;13.60;8.23;;;;;;;16.10;100.00;99917.66;5045831;28;20434;-72
2021/09/26 06:39:39;;;;;;;12.27;8.00;;;;;;;16.17;100.00;99928.75;5051721;28;20053;-72
2021/09/26 06:42:06;;;;;;;11.45;8.18;;;;;;;16.17;100.00;99939.50;5055184;28;20374;-71
2021/09/26 06:44:34;;;;;;;8.93;7.22;;;;;;;16.31;100.00;99941.81;5053728;28;20102;-72
2021/09/26 06:47:01;;;;;;;8.10;7.30;;;;;;;16.32;100.00;99946.22;5037017;28;20427;-75
2021/09/26 06:49:28;;;;;;;10.20;7.57;;;;;;;16.38;100.00;99956.44;5043927;28;20376;-73
2021/09/26 06:51:54;;;;;;;9.15;7.85;;;;;;;16.43;100.00;99959.59;5053406;28;20074;-76
2021/09/26 06:54:21;;;;;;;9.52;7.35;;;;;;;16.51;100.00;99963.44;5041385;28;20037;-71
2021/09/26 06:56:48;;;;;;;9.18;7.18;;;;;;;16.51;100.00;99963.44;5037026;28;20056;-72
2021/09/26 06:59:15;;;;;;;8.90;7.43;;;;;;;16.49;100.00;99963.56;5046697;28;20094;-72
2021/09/26 07:01:41;;;;;;;10.55;7.03;;;;;;;16.59;100.00;99971.69;5039809;28;20087;-71
2021/09/26 07:04:08;;;;;;;9.80;7.10;;;;;;;16.53;100.00;99964.16;5041448;28;20040;-71
2021/09/26 07:06:35;;;;;;;15.15;6.70;;;;;;;16.50;100.00;99965.28;5050829;28;20123;-71
2021/09/26 07:09:02;;;;;;;7.43;6.65;;;;;;;16.59;100.00;99969.00;5039606;28;20389;-76
2021/09/26 07:11:30;;;;;;;9.35;6.55;;;;;;;16.64;100.00;99955.97;5036841;28;20050;-77
2021/09/26 07:13:56;;;;;;;7.32;6.38;;;;;;;16.75;100.00;99956.81;5044205;28;20041;-79
2021/09/26 07:16:23;;;;;;;10.35;6.60;;;;;;;16.78;100.00;99959.25;5046145;28;20445;-78
2021/09/26 07:18:52;;;;;;;7.65;6.07;;;;;;;16.81;100.00;99964.34;5047282;28;20397;-76
2021/09/26 07:21:19;;;;;;;8.98;6.45;;;;;;;16.87;100.00;99953.00;5041499;28;20040;-77
2021/09/26 07:23:46;;;;;;;9.20;6.20;;;;;;;16.97;100.00;99967.38;5038373;28;20052;-77
2021/09/26 07:26:13;;;;;;;6.88;5.85;;;;;;;17.04;100.00;99964.13;5039019;28;20038;-75
2021/09/26 07:28:40;;;;;;;6.60;5.20;;;;;;;17.15;100.00;99957.75;5038487;28;20038;-78
2021/09/26 07:31:07;;;;;;;9.52;5.80;;;;;;;17.25;100.00;99958.59;5035348;28;20041;-77
2021/09/26 07:33:34;;;;;;;11.73;5.50;;;;;;;17.30;100.00;99961.72;5039876;28;20488;-77
2021/09/26 07:36:01;;;;;;;9.35;5.45;;;;;;;17.33;100.00;99968.69;5049048;28;20040;-77
2021/09/26 07:38:28;;;;;;;13.45;5.85;;;;;;;17.32;100.00;99969.69;5046172;28;20084;-72
2021/09/26 07:40:55;;;;;;;7.05;5.20;;;;;;;17.33;100.00;99974.09;5052425;28;20049;-78
2021/09/26 07:43:22;;;;;;;11.07;4.85;;;;;;;17.41;100.00;99970.66;5053074;28;20112;-71
2021/09/26 07:45:55;;;;;;;6.85;4.72;;;;;;;17.42;100.00;99970.50;5037902;28;20072;-74
2021/09/26 07:48:22;;;;;;;8.50;5.32;;;;;;;17.46;100.00;99968.38;5041278;28;20067;-73
2021/09/26 07:50:52;;;;;;;5.70;4.72;;;;;;;17.51;100.00;99975.06;5041552;28;20472;-72
2021/09/26 07:53:19;;;;;;;8.87;4.80;;;;;;;17.55;100.00;99980.16;5035579;28;20132;-73
2021/09/26 07:55:49;;;;;;;11.95;5.03;;;;;;;17.58;100.00;99977.16;5054315;28;20059;-74
2021/09/26 07:58:16;;;;;;;8.02;4.15;;;;;;;17.61;100.00;99993.09;5053821;28;20049;-73
2021/09/26 08:00:43;;;;;;;7.25;3.72;;;;;;;17.72;99.56;99989.38;5054372;28;20040;-75
2021/09/26 08:03:10;;;;;;;8.45;4.32;;;;;;;17.80;99.88;99980.56;5052897;28;20056;-72
2021/09/26 08:05:38;;;;;;;9.00;4.28;;;;;;;17.89;98.25;99990.47;5069607;28;20049;-71
2021/09/26 08:08:05;;;;;;;6.05;4.03;;;;;;;17.93;98.15;99997.31;5048534;28;20052;-72
2021/09/26 08:10:31;;;;;;;9.57;4.07;;;;;;;18.01;99.04;100001.94;5066771;28;20040;-72
2021/09/26 08:12:58;;;;;;;6.28;4.13;;;;;;;18.00;99.40;100002.94;5066635;28;20061;-69
2021/09/26 08:15:25;;;;;;;7.07;4.03;;;;;;;18.03;97.63;99991.88;5043128;28;20049;-74
2021/09/26 08:17:52;;;;;;;6.03;3.80;;;;;;;18.18;97.44;100006.63;5042318;28;20047;-71
2021/09/26 08:20:19;;;;;;;8.52;4.03;;;;;;;18.28;96.44;100005.75;5054195;28;20091;-75
2021/09/26 08:22:46;;;;;;;7.13;3.63;;;;;;;18.31;94.47;100000.88;5050518;28;20056;-73
2021/09/26 08:25:14;;;;;;;5.22;3.72;;;;;;;18.43;94.67;100011.53;5048827;28;20045;-72
2021/09/26 08:27:41;;;;;;;9.05;3.25;;;;;;;18.50;91.80;100009.91;5062193;28;20045;-69
2021/09/26 08:30:09;;;;;;;7.28;3.60;;;;;;;18.50;93.25;99998.25;5047454;28;20037;-69
2021/09/26 08:32:37;;;;;;;6.75;3.10;;;;;;;18.62;91.52;100005.16;5056780;28;20402;-69
2021/09/26 08:35:06;;;;;;;6.25;3.10;;;;;;;18.69;90.05;99997.31;5045509;28;20046;-70
2021/09/26 08:37:33;;;;;;;6.63;2.90;;;;;;;18.70;90.33;100016.06;5037770;28;20046;-70
2021/09/26 08:40:01;;;;;;;6.35;3.15;;;;;;;18.76;90.65;100019.19;5050383;28;20052;-71
2021/09/26 08:42:28;;;;;;;5.18;2.90;;;;;;;18.79;91.28;100013.47;5057088;28;20041;-72
2021/09/26 08:44:55;;;;;;;5.45;2.58;;;;;;;18.93;90.03;100009.41;5057091;28;20045;-70
2021/09/26 08:47:22;;;;;;;7.75;3.03;;;;;;;19.00;88.45;100007.78;5052775;28;20049;-71
2021/09/26 08:49:49;;;;;;;6.93;3.10;;;;;;;19.00;88.50;100005.06;5052306;28;20385;-70
2021/09/26 08:52:16;;;;;;;10.45;3.03;;;;;;;19.09;87.53;100012.31;5070707;28;20094;-71
2021/09/26 08:54:44;;;;;;;6.40;2.70;;;;;;;19.07;87.13;100014.31;5056748;28;20049;-70
2021/09/26 08:57:11;;;;;;;9.45;2.80;;;;;;;19.13;86.39;100010.16;5055489;28;20072;-71
2021/09/26 08:59:38;;;;;;;5.65;2.88;;;;;;;19.12;85.86;100022.81;5046920;28;20041;-70
2021/09/26 09:02:05;;;;;;;8.63;2.80;;;;;;;19.13;86.91;100019.13;5056806;28;20053;-71
2021/09/26 09:04:40;;;;;;;9.30;2.85;;;;;;;19.12;88.03;100024.69;5057485;28;20053;-71
2021/09/26 09:07:09;;;;;;;9.85;3.03;;;;;;;19.17;85.93;100022.38;5053514;28;20072;-71
2021/09/26 09:10:03;;;;;;;8.07;3.10;;;;;;;19.29;85.36;100030.25;5054157;28;20056;-71
2021/09/26 09:12:36;;;;;;;5.03;2.65;;;;;;;19.41;83.90;100031.75;5036064;28;20053;-71
2021/09/26 09:15:08;;;;;;;7.38;2.55;;;;;;;19.36;83.87;100034.91;5037211;28;20080;-71
2021/09/26 09:17:35;;;;;;;8.50;2.72;;;;;;;19.43;85.00;100042.41;5035915;28;20056;-71
2021/09/26 09:20:17;;;;;;;6.45;2.60;;;;;;;19.55;86.32;100046.56;5035995;28;20049;-71
2021/09/26 09:22:47;;;;;;;5.32;2.80;;;;;;;19.57;84.50;100035.59;5035885;28;20089;-71
2021/09/26 09:25:30;;;;;;;6.55;2.60;;;;;;;19.86;82.63;100048.88;5036731;28;20057;-71
2021/09/26 09:27:58;;;;;;;8.25;2.67;;;;;;;19.89;82.31;100051.25;5036635;28;20073;-71
2021/09/26 09:30:34;;;;;;;3.47;2.28;;;;;;;20.01;79.69;100054.59;5036809;28;20393;-71
2021/09/26 09:33:01;;;;;;;5.78;2.55;;;;;;;20.13;78.59;100066.03;5035639;28;20498;-71
2021/09/26 09:35:33;;;;;;;7.78;2.63;;;;;;;20.16;79.64;100060.28;5049947;28;20041;-70
2021/09/26 09:38:00;;;;;;;5.80;2.38;;;;;;;20.28;79.86;100066.31;5056577;28;20108;-71
2021/09/26 09:40:27;;;;;;;9.07;2.58;;;;;;;20.37;79.66;100069.06;5038674;28;20401;-71
2021/09/26 09:42:55;;;;;;;7.45;2.20;;;;;;;20.37;78.72;100077.19;5056256;28;20132;-71
2021/09/26 09:45:23;;;;;;;7.05;2.35;;;;;;;20.39;77.31;100069.75;5056435;28;20052;-69
2021/09/26 09:48:08;;;;;;;8.95;2.22;;;;;;;20.45;77.29;100069.09;5055376;28;20052;-70
2021/09/26 09:50:47;;;;;;;6.20;2.22;;;;;;;20.49;77.30;100065.91;5055190;28;20053;-70
2021/09/26 09:53:36;;;;;;;5.68;3.05;;;;;;;20.30;77.43;100074.25;5056369;28;20049;-70
2021/09/26 09:56:08;;;;;;;4.00;2.30;;;;;;;20.11;79.32;100084.31;5056297;28;20045;-70
2021/09/26 09:58:38;;;;;;;6.05;2.72;;;;;;;19.97;79.95;100065.88;5055135;28;20052;-71
2021/09/26 10:01:08;;;;;;;7.80;2.55;;;;;;;19.78;80.31;100067.75;5056186;28;20045;-70
2021/09/26 10:03:36;;;;;;;;;;;;;;;19.69;80.84;100077.66;5056276;28;20056;-71
2021/09/26 10:06:40;;;;;;;8.98;3.28;;;;;;;19.59;82.69;100082.31;5054883;28;19920;-70
2021/09/26 10:09:20;;;;;;;3.22;2.13;;;;;;;19.62;82.21;100074.72;5055924;28;20330;-70
2021/09/26 10:11:58;;;;;;;13.00;3.00;;;;;;;19.61;82.40;100074.91;5055827;28;20041;-71
2021/09/26 10:14:28;;;;;;;10.52;3.00;;;;;;;19.75;82.04;100082.47;5054781;28;20041;-71
2021/09/26 10:16:56;;;;;;;4.47;2.60;;;;;;;19.84;81.89;100083.38;5054676;28;20053;-71
2021/09/26 10:19:25;;;;;;;8.35;2.83;;;;;;;19.91;81.22;100079.06;5054437;28;20102;-70
2021/09/26 10:21:56;;;;;;;7.70;2.63;;;;;;;19.95;80.48;100091.28;5055929;28;20072;-68
2021/09/26 10:24:28;;;;;;;9.63;3.05;;;;;;;19.98;82.04;100103.66;5055675;28;20047;-68
2021/09/26 10:26:56;;;;;;;7.03;2.63;;;;;;;20.11;81.28;100099.69;5055672;28;20072;-68
2021/09/26 10:29:26;;;;;;;8.52;3.17;;;;;;;20.04;81.82;100094.91;5054442;28;20041;-69
2021/09/26 10:31:58;;;;;;;15.63;2.85;;;;;;;20.05;81.92;100095.78;5055731;28;20532;-72
2021/09/26 10:34:25;;;;;;;8.38;2.65;;;;;;;20.04;82.03;100100.34;5055358;28;20123;-70
2021/09/26 10:36:53;;;;;;;6.72;3.15;;;;;;;20.04;83.94;100097.63;5055454;28;20067;-69
2021/09/26 10:39:20;;;;;;;6.88;2.58;;;;;;;19.95;82.84;100104.81;5055081;28;20064;-69
2021/09/26 10:42:10;;;;;;;7.63;3.03;;;;;;;19.94;83.02;100107.69;5055319;28;20076;-69
2021/09/26 10:44:48;;;;;;;;;;;;;;;19.94;83.32;100110.38;5054690;28;20323;-71
2021/09/26 10:47:20;;;;;;;8.20;2.75;;;;;;;19.91;82.10;100102.56;5054308;28;19925;-70
2021/09/26 10:49:50;;;;;;;8.15;2.78;;;;;;;19.90;83.32;100109.00;5055151;28;20434;-69
2021/09/26 10:52:37;;;;;;;5.65;2.83;;;;;;;19.89;83.75;100110.84;5055333;28;20040;-71
2021/09/26 10:55:30;;;;;;;11.35;2.70;;;;;;;19.80;83.71;100104.53;5054906;28;20095;-71
2021/09/26 10:58:00;;;;;;;8.00;3.65;;;;;;;19.78;84.68;100106.50;5054007;28;20126;-72
2021/09/26 11:00:41;;;;;;;4.47;2.00;;;;;;;19.84;83.00;100112.31;5053473;28;20099;-74
2021/09/26 11:03:18;;;;;;;5.82;2.80;;;;;;;20.03;82.62;100112.19;5050080;28;20045;-73
2021/09/26 11:05:49;;;;;;;8.18;2.83;;;;;;;19.94;83.24;100110.38;5041465;28;20037;-72
2021/09/26 11:08:36;;;;;;;8.02;3.03;;;;;;;19.95;83.31;100110.25;5037631;28;20037;-73
2021/09/26 11:11:04;;;;;;;5.95;2.70;;;;;;;20.01;82.54;100106.06;5053525;28;20037;-73
2021/09/26 11:13:33;;;;;;;7.97;2.50;;;;;;;20.02;82.76;100101.50;5053543;28;20323;-71
2021/09/26 11:16:12;;;;;;;5.88;2.53;;;;;;;19.96;82.84;100102.97;5046611;28;20041;-72
2021/09/26 11:18:58;;;;;;;6.13;2.40;;;;;;;19.95;81.61;100099.41;5038071;28;20048;-71
2021/09/26 11:21:45;;;;;;;11.32;3.10;;;;;;;19.95;83.17;100109.41;5045806;28;20037;-74
2021/09/26 11:24:18;;;;;;;5.53;2.88;;;;;;;19.90;82.45;100106.28;5037978;28;20343;-74
2021/09/26 11:26:57;;;;;;;6.70;2.65;;;;;;;19.85;84.17;100098.63;5043290;28;20061;-74
2021/09/26 11:29:51;;;;;;;5.20;2.50;;;;;;;19.89;82.92;100105.41;5041562;28;20056;-72
2021/09/26 11:32:24;;;;;;;5.05;2.70;;;;;;;19.90;83.49;100103.56;5039047;28;20050;-74
2021/09/26 11:34:53;;;;;;;5.43;2.55;;;;;;;19.87;84.22;100098.47;5042584;28;20064;-73
2021/09/26 11:37:38;;;;;;;6.63;2.75;;;;;;;19.92;83.59;100097.00;5045039;28;20373;-71